Time;durP1;ratioP1;P1;durP2;ratioP2;P2;SDS_P1;SDS_P2;PMS_P1;PMS_P2;Temp;Humidity;BMP_temperature;BMP_pressure;BME280_temperature;BME280_humidity;BME280_pressure;Samples;Min_cycle;Max_cycle;Signal;HPM_P1;HPM_P2
2022/04/26 03:37:55;;;;;;;;;;;;;;;;;;4959806;28;19973;-82
2022/04/26 03:40:44;;;;;;;;;;;;;;;;;;4990290;28;19942;-80
2022/04/26 03:43:10;;;;;;;;;;;;;;;;;;5011127;28;19952;-81
2022/04/26 03:45:37;;;;;;;;;;;;;;;;;;5002016;28;19983;-80
2022/04/26 03:48:21;;;;;;;;;;;;;;;;;;5011344;28;20262;-79
2022/04/26 03:50:49;;;;;;;;;;;;;;;;;;5009227;28;19917;-80
2022/04/26 03:53:36;;;;;;;;;;;;;;;;;;5033283;28;19929;-81
2022/04/26 03:56:02;;;;;;;;;;;;;;;;;;5040777;28;20576;-79
2022/04/26 03:58:29;;;;;;;;;;;;;;;;;;5036777;28;19998;-78
2022/04/26 04:00:56;;;;;;;;;;;;;;;;;;5031778;28;20077;-81
2022/04/26 04:03:22;;;;;;;;;;;;;;;;;;5052983;28;19948;-81
2022/04/26 04:05:48;;;;;;;;;;;;;;;;;;5034450;28;19962;-82
2022/04/26 04:08:15;;;;;;;;;;;;;;;;;;5031800;28;20006;-82
2022/04/26 04:10:41;;;;;;;;;;;;;;;;;;5039740;28;19944;-80
2022/04/26 04:13:07;;;;;;;;;;;;;;;;;;5047122;28;19960;-81
2022/04/26 04:15:33;;;;;;;;;;;;;;;;;;5043424;28;19958;-80
2022/04/26 04:17:59;;;;;;;;;;;;;;;;;;5035605;28;19921;-82
2022/04/26 04:20:26;;;;;;;;;;;;;;;;;;5064003;28;19960;-81
2022/04/26 04:22:55;;;;;;;;;;;;;;;;;;5036894;28;19963;-81
2022/04/26 04:25:21;;;;;;;;;;;;;;;;;;5049366;28;19956;-81
2022/04/26 04:27:48;;;;;;;;;;;;;;;;;;5043084;28;20462;-82
2022/04/26 04:30:14;;;;;;;;;;;;;;;;;;5048848;28;19968;-80
2022/04/26 04:32:40;;;;;;;;;;;;;;;;;;5048124;28;20010;-80
2022/04/26 04:35:09;;;;;;;;;;;;;;;;;;5046058;28;19963;-81
2022/04/26 04:37:35;;;;;;;;;;;;;;;;;;5053760;28;19960;-80
2022/04/26 04:40:02;;;;;;;;;;;;;;;;;;5040605;28;19986;-80
2022/04/26 04:42:34;;;;;;;;;;;;;;;;;;5033174;28;19913;-80
2022/04/26 04:45:02;;;;;;;;;;;;;;;;;;5059281;28;20401;-80
2022/04/26 04:47:28;;;;;;;;;;;;;;;;;;5053733;28;19966;-80
2022/04/26 04:49:54;;;;;;;;;;;;;;;;;;5037856;28;19952;-80
2022/04/26 04:52:20;;;;;;;;;;;;;;;;;;5050957;28;19967;-81
2022/04/26 04:54:47;;;;;;;;;;;;;;;;;;5043308;28;19956;-81
2022/04/26 04:57:13;;;;;;;;;;;;;;;;;;5042156;28;20360;-82
2022/04/26 04:59:39;;;;;;;;;;;;;;;;;;5042896;28;20466;-82
2022/04/26 05:02:05;;;;;;;;;;;;;;;;;;5042663;28;19949;-82
2022/04/26 05:04:32;;;;;;;;;;;;;;;;;;5063929;28;19917;-82
2022/04/26 05:06:58;;;;;;;;;;;;;;;;;;5055015;28;20375;-81
2022/04/26 05:09:24;;;;;;;;;;;;;;;;;;5071290;28;20498;-81
2022/04/26 05:11:50;;;;;;;;;;;;;;;;;;5041158;28;20318;-81
2022/04/26 05:14:16;;;;;;;;;;;;;;;;;;5055073;28;19945;-81
2022/04/26 05:16:43;;;;;;;;;;;;;;;;;;5070217;28;19968;-81
2022/04/26 05:19:09;;;;;;;;;;;;;;;;;;5059888;28;19947;-81
2022/04/26 05:21:35;;;;;;;;;;;;;;;;;;5068038;28;20027;-82
2022/04/26 05:26:46;;;;;;;;;;;;;;;;;;5072203;28;19959;-81
2022/04/26 05:29:12;;;;;;;;;;;;;;;;;;5035786;28;19929;-81
2022/04/26 05:31:43;;;;;;;;;;;;;;;;;;5065334;28;20147;-81
2022/04/26 05:34:09;;;;;;;;;;;;;;;;;;5047445;28;19936;-80
2022/04/26 05:36:35;;;;;;;;;;;;;;;;;;5046728;28;19968;-81
2022/04/26 05:39:01;;;;;;;;;;;;;;;;;;5042543;28;19946;-80
2022/04/26 05:41:28;;;;;;;;;;;;;;;;;;5048998;28;19953;-80
2022/04/26 05:43:54;;;;;;;;;;;;;;;;;;5047652;28;20034;-81
2022/04/26 05:46:20;;;;;;;;;;;;;;;;;;5055481;28;19959;-82
2022/04/26 05:48:46;;;;;;;;;;;;;;;;;;5056017;28;19948;-82
2022/04/26 05:51:15;;;;;;;;;;;;;;;;;;5047921;28;20075;-83
2022/04/26 05:53:44;;;;;;;;;;;;;;;;;;5036157;28;19948;-82
2022/04/26 05:56:12;;;;;;;;;;;;;;;;;;5030519;28;19949;-81
2022/04/26 05:58:38;;;;;;;;;;;;;;;;;;5046356;28;20491;-81
2022/04/26 06:01:04;;;;;;;;;;;;;;;;;;5055780;28;19913;-82
2022/04/26 06:03:31;;;;;;;;;;;;;;;;;;5051709;28;19917;-81
2022/04/26 06:05:57;;;;;;;;;;;;;;;;;;5049095;28;20479;-82
2022/04/26 06:08:23;;;;;;;;;;;;;;;;;;5032744;28;19952;-81
2022/04/26 06:10:49;;;;;;;;;;;;;;;;;;5040906;28;20398;-82
2022/04/26 06:13:15;;;;;;;;;;;;;;;;;;5043894;28;19951;-83
2022/04/26 06:15:42;;;;;;;;;;;;;;;;;;5034565;28;19963;-84
2022/04/26 06:18:08;;;;;;;;;;;;;;;;;;5037927;28;19959;-82
2022/04/26 06:20:34;;;;;;;;;;;;;;;;;;5036124;28;20396;-81
2022/04/26 06:23:03;;;;;;;;;;;;;;;;;;5058224;28;19971;-80
2022/04/26 06:25:29;;;;;;;;;;;;;;;;;;5031773;28;19964;-80
2022/04/26 06:27:55;;;;;;;;;;;;;;;;;;5038976;28;19993;-80
2022/04/26 06:30:21;;;;;;;;;;;;;;;;;;5020704;28;19943;-82
2022/04/26 06:32:48;;;;;;;;;;;;;;;;;;5065796;28;19960;-79
2022/04/26 06:35:14;;;;;;;;;;;;;;;;;;5038856;28;19975;-80
2022/04/26 06:37:40;;;;;;;;;;;;;;;;;;5034086;28;19968;-79
2022/04/26 06:40:06;;;;;;;;;;;;;;;;;;5036181;28;19956;-80
2022/04/26 06:42:32;;;;;;;;;;;;;;;;;;5050339;28;19948;-80
2022/04/26 06:44:58;;;;;;;;;;;;;;;;;;5047476;28;19940;-81
2022/04/26 06:47:25;;;;;;;;;;;;;;;;;;5046094;28;20337;-80
2022/04/26 06:49:51;;;;;;;;;;;;;;;;;;5049857;28;20340;-81
2022/04/26 06:52:17;;;;;;;;;;;;;;;;;;5044463;28;19951;-80
2022/04/26 06:54:45;;;;;;;;;;;;;;;;;;5063078;28;20010;-82
2022/04/26 06:57:11;;;;;;;;;;;;;;;;;;5043994;28;20007;-81
2022/04/26 06:59:38;;;;;;;;;;;;;;;;;;5040430;28;19990;-81
2022/04/26 07:02:04;;;;;;;;;;;;;;;;;;5037945;28;19921;-81
2022/04/26 07:04:30;;;;;;;;;;;;;;;;;;5058237;28;20471;-81
2022/04/26 07:06:56;;;;;;;;;;;;;;;;;;5055968;28;19948;-82
2022/04/26 07:09:23;;;;;;;;;;;;;;;;;;5049782;28;19952;-82
2022/04/26 07:11:49;;;;;;;;;;;;;;;;;;5042216;28;19969;-82
2022/04/26 07:14:15;;;;;;;;;;;;;;;;;;5042233;28;20035;-83
2022/04/26 07:16:41;;;;;;;;;;;;;;;;;;5041712;28;19968;-82
2022/04/26 07:19:08;;;;;;;;;;;;;;;;;;5038139;28;19959;-82
2022/04/26 07:21:36;;;;;;;;;;;;;;;;;;5033871;28;19967;-82
2022/04/26 07:24:02;;;;;;;;;;;;;;;;;;5043417;28;19956;-83
2022/04/26 07:26:28;;;;;;;;;;;;;;;;;;5047689;28;19956;-82
2022/04/26 07:28:57;;;;;;;;;;;;;;;;;;5043553;28;19960;-82
2022/04/26 07:31:23;;;;;;;;;;;;;;;;;;5050435;28;19952;-82
2022/04/26 07:36:34;;;;;;;;;;;;;;;;;;5053166;28;19960;-81
2022/04/26 07:39:00;;;;;;;;;;;;;;;;;;5020397;28;19941;-82
2022/04/26 07:41:27;;;;;;;;;;;;;;;;;;5049831;28;19944;-80
2022/04/26 07:43:55;;;;;;;;;;;;;;;;;;5048042;28;19952;-81
2022/04/26 07:46:21;;;;;;;;;;;;;;;;;;5052726;28;19974;-82
2022/04/26 07:48:47;;;;;;;;;;;;;;;;;;5052184;28;20719;-81
2022/04/26 07:51:13;;;;;;;;;;;;;;;;;;5042598;28;19960;-81
2022/04/26 07:53:39;;;;;;;;;;;;;;;;;;5048724;28;19952;-82
2022/04/26 07:56:06;;;;;;;;;;;;;;;;;;5058760;28;20013;-81
2022/04/26 07:58:32;;;;;;;;;;;;;;;;;;5045750;28;19949;-83
2022/04/26 08:00:58;;;;;;;;;;;;;;;;;;5040790;28;19965;-82
2022/04/26 08:03:24;;;;;;;;;;;;;;;;;;5046571;28;19944;-82
2022/04/26 08:05:52;;;;;;;;;;;;;;;;;;5065679;28;19956;-81
2022/04/26 08:08:19;;;;;;;;;;;;;;;;;;5034880;28;20093;-81
2022/04/26 08:10:45;;;;;;;;;;;;;;;;;;5042853;28;19949;-80
2022/04/26 08:13:11;;;;;;;;;;;;;;;;;;5050075;28;20056;-81
2022/04/26 08:15:39;;;;;;;;;;;;;;;;;;5046365;28;20352;-82
2022/04/26 08:18:05;;;;;;;;;;;;;;;;;;5049130;28;19967;-81
2022/04/26 08:20:32;;;;;;;;;;;;;;;;;;5060232;28;19913;-81
2022/04/26 08:22:59;;;;;;;;;;;;;;;;;;5052425;28;19913;-82
2022/04/26 08:28:10;;;;;;;;;;;;;;;;;;5044033;28;20210;-81
2022/04/26 08:30:36;;;;;;;;;;;;;;;;;;5034071;28;19948;-81
2022/04/26 08:33:03;;;;;;;;;;;;;;;;;;5046645;28;20028;-82
2022/04/26 08:35:29;;;;;;;;;;;;;;;;;;5055906;28;19967;-82
2022/04/26 08:37:55;;;;;;;;;;;;;;;;;;5066500;28;19960;-81
2022/04/26 08:40:21;;;;;;;;;;;;;;;;;;5072334;28;19997;-81
2022/04/26 08:42:49;;;;;;;;;;;;;;;;;;5050961;28;20337;-83
2022/04/26 08:45:16;;;;;;;;;;;;;;;;;;5033434;28;19957;-82
2022/04/26 08:53:12;;;;;;;;;;;;;;;;;;5040428;28;20564;-80
2022/04/26 08:55:38;;;;;;;;;;;;;;;;;;5043482;28;20491;-81
2022/04/26 08:58:06;;;;;;;;;;;;;;;;;;5053400;28;19920;-83
2022/04/26 09:00:32;;;;;;;;;;;;;;;;;;5049009;28;19952;-82
2022/04/26 09:02:59;;;;;;;;;;;;;;;;;;5043008;28;19951;-82
2022/04/26 09:05:28;;;;;;;;;;;;;;;;;;5038170;28;19944;-82
2022/04/26 09:08:17;;;;;;;;;;;;;;;;;;5002287;28;19913;-82
2022/04/26 09:10:44;;;;;;;;;;;;;;;;;;5007340;28;19913;-83
2022/04/26 09:13:13;;;;;;;;;;;;;;;;;;5018742;28;19913;-81
2022/04/26 09:15:59;;;;;;;;;;;;;;;;;;5014899;28;19920;-82
2022/04/26 09:18:30;;;;;;;;;;;;;;;;;;5044864;28;19972;-81
2022/04/26 09:20:56;;;;;;;;;;;;;;;;;;5043570;28;20341;-81
2022/04/26 09:23:26;;;;;;;;;;;;;;;;;;5041439;28;19916;-82
2022/04/26 09:25:53;;;;;;;;;;;;;;;;;;5042104;28;20450;-81
2022/04/26 09:28:20;;;;;;;;;;;;;;;;;;5064028;28;19968;-81
2022/04/26 09:30:47;;;;;;;;;;;;;;;;;;5043547;28;20446;-81
2022/04/26 09:33:13;;;;;;;;;;;;;;;;;;5054262;28;19959;-82
2022/04/26 09:35:40;;;;;;;;;;;;;;;;;;5057245;28;19948;-81
2022/04/26 09:38:07;;;;;;;;;;;;;;;;;;5049205;28;20101;-82
2022/04/26 09:40:33;;;;;;;;;;;;;;;;;;5062943;28;20450;-81
2022/04/26 09:42:59;;;;;;;;;;;;;;;;;;5054945;28;20316;-82
2022/04/26 09:45:25;;;;;;;;;;;;;;;;;;5047910;28;19947;-82
2022/04/26 09:47:53;;;;;;;;;;;;;;;;;;5047419;28;20022;-82
2022/04/26 09:50:19;;;;;;;;;;;;;;;;;;5047849;28;19944;-82
2022/04/26 09:52:46;;;;;;;;;;;;;;;;;;5052929;28;26116;-82
2022/04/26 09:55:15;;;;;;;;;;;;;;;;;;5039528;28;19953;-82
2022/04/26 09:57:43;;;;;;;;;;;;;;;;;;5058787;28;19994;-82
2022/04/26 10:00:09;;;;;;;;;;;;;;;;;;5048448;28;20278;-82
2022/04/26 10:02:36;;;;;;;;;;;;;;;;;;5050408;28;19946;-82
2022/04/26 10:05:03;;;;;;;;;;;;;;;;;;5047245;28;19952;-82
2022/04/26 10:07:29;;;;;;;;;;;;;;;;;;5053882;28;19956;-81
2022/04/26 10:09:55;;;;;;;;;;;;;;;;;;5047054;28;19955;-82
2022/04/26 10:12:21;;;;;;;;;;;;;;;;;;5053946;28;19913;-82
2022/04/26 10:14:47;;;;;;;;;;;;;;;;;;5034275;28;19952;-82
2022/04/26 10:17:14;;;;;;;;;;;;;;;;;;5047861;28;19952;-82
2022/04/26 10:19:40;;;;;;;;;;;;;;;;;;5049147;28;19964;-81
2022/04/26 10:22:08;;;;;;;;;;;;;;;;;;5050447;28;20084;-82
2022/04/26 10:24:34;;;;;;;;;;;;;;;;;;5049654;28;20384;-81
2022/04/26 10:27:00;;;;;;;;;;;;;;;;;;5061743;28;19963;-83
2022/04/26 10:29:26;;;;;;;;;;;;;;;;;;5060613;28;20672;-80
2022/04/26 10:31:53;;;;;;;;;;;;;;;;;;5031005;28;19994;-82
2022/04/26 10:34:20;;;;;;;;;;;;;;;;;;5059664;28;19948;-82
2022/04/26 10:36:49;;;;;;;;;;;;;;;;;;5038370;28;19948;-82
2022/04/26 10:39:16;;;;;;;;;;;;;;;;;;5048064;28;19959;-82
2022/04/26 10:41:42;;;;;;;;;;;;;;;;;;5039892;28;19952;-82
2022/04/26 10:44:11;;;;;;;;;;;;;;;;;;5046237;28;20450;-83
2022/04/26 10:46:38;;;;;;;;;;;;;;;;;;5068455;28;19951;-82
2022/04/26 10:49:04;;;;;;;;;;;;;;;;;;5044095;28;19952;-82
2022/04/26 10:51:30;;;;;;;;;;;;;;;;;;5036066;28;20375;-82
2022/04/26 10:53:56;;;;;;;;;;;;;;;;;;5056152;28;20038;-83
2022/04/26 10:56:22;;;;;;;;;;;;;;;;;;5070265;28;20392;-82
2022/04/26 10:58:48;;;;;;;;;;;;;;;;;;5041891;28;19947;-81
2022/04/26 11:01:18;;;;;;;;;;;;;;;;;;5061965;28;19948;-81
2022/04/26 11:03:44;;;;;;;;;;;;;;;;;;5057172;28;20284;-82
2022/04/26 11:06:14;;;;;;;;;;;;;;;;;;5047988;28;19917;-82
2022/04/26 11:08:44;;;;;;;;;;;;;;;;;;5051110;28;19948;-82
2022/04/26 11:11:11;;;;;;;;;;;;;;;;;;5050097;28;19917;-83
2022/04/26 11:13:37;;;;;;;;;;;;;;;;;;5059625;28;20749;-82
2022/04/26 11:16:06;;;;;;;;;;;;;;;;;;5051333;28;19916;-82
2022/04/26 11:18:32;;;;;;;;;;;;;;;;;;5044266;28;19956;-82
2022/04/26 11:20:58;;;;;;;;;;;;;;;;;;5042225;28;20431;-82
2022/04/26 11:28:54;;;;;;;;;;;;;;;;;;5035982;28;21502;-82
2022/04/26 11:31:22;;;;;;;;;;;;;;;;;;5056304;28;19961;-82
2022/04/26 11:33:49;;;;;;;;;;;;;;;;;;5045768;28;19944;-82
2022/04/26 11:36:15;;;;;;;;;;;;;;;;;;5055810;28;19925;-81
2022/04/26 11:38:41;;;;;;;;;;;;;;;;;;5043873;28;20366;-82
2022/04/26 11:41:09;;;;;;;;;;;;;;;;;;5042616;28;19959;-82
2022/04/26 11:43:36;;;;;;;;;;;;;;;;;;5034343;28;19975;-80
2022/04/26 11:46:02;;;;;;;;;;;;;;;;;;5050405;28;19921;-81
2022/04/26 11:48:29;;;;;;;;;;;;;;;;;;5039129;28;19957;-81
2022/04/26 11:50:55;;;;;;;;;;;;;;;;;;5012290;28;19974;-81
2022/04/26 11:53:21;;;;;;;;;;;;;;;;;;5057705;28;19952;-81
2022/04/26 11:55:47;;;;;;;;;;;;;;;;;;5051052;28;20395;-81
2022/04/26 11:58:14;;;;;;;;;;;;;;;;;;5035148;28;19961;-81
2022/04/26 12:00:40;;;;;;;;;;;;;;;;;;5040097;28;19948;-81
2022/04/26 12:03:06;;;;;;;;;;;;;;;;;;5038469;28;19936;-82
2022/04/26 12:05:32;;;;;;;;;;;;;;;;;;5047085;28;19971;-81
2022/04/26 12:07:58;;;;;;;;;;;;;;;;;;5062515;28;19913;-81
2022/04/26 12:10:25;;;;;;;;;;;;;;;;;;5049344;28;19921;-82
2022/04/26 12:12:51;;;;;;;;;;;;;;;;;;5051949;28;20653;-82
2022/04/26 12:15:18;;;;;;;;;;;;;;;;;;5046587;28;19952;-81
2022/04/26 12:17:44;;;;;;;;;;;;;;;;;;5034407;28;19975;-82
2022/04/26 12:20:10;;;;;;;;;;;;;;;;;;5048780;28;19917;-80
2022/04/26 12:22:36;;;;;;;;;;;;;;;;;;5037797;28;20357;-80
2022/04/26 12:25:03;;;;;;;;;;;;;;;;;;5053601;28;19964;-81
2022/04/26 12:27:32;;;;;;;;;;;;;;;;;;5049465;28;19947;-81
2022/04/26 12:30:01;;;;;;;;;;;;;;;;;;5035052;28;19979;-81
2022/04/26 12:32:29;;;;;;;;;;;;;;;;;;5031457;28;19964;-80
2022/04/26 12:34:55;;;;;;;;;;;;;;;;;;5053097;28;19983;-80
2022/04/26 12:37:21;;;;;;;;;;;;;;;;;;5029289;28;19964;-80
2022/04/26 12:39:48;;;;;;;;;;;;;;;;;;5040864;28;19952;-83
2022/04/26 12:42:15;;;;;;;;;;;;;;;;;;5031240;28;20344;-82
2022/04/26 12:44:41;;;;;;;;;;;;;;;;;;5045341;28;19967;-83
2022/04/26 12:52:38;;;;;;;;;;;;;;;;;;5021973;28;19952;-82
2022/04/26 12:55:04;;;;;;;;;;;;;;;;;;5017957;28;19964;-83
2022/04/26 12:57:30;;;;;;;;;;;;;;;;;;5033903;28;19924;-83
2022/04/26 12:59:56;;;;;;;;;;;;;;;;;;5023422;28;19928;-83
2022/04/26 13:02:23;;;;;;;;;;;;;;;;;;5038514;28;20630;-82
2022/04/26 13:04:49;;;;;;;;;;;;;;;;;;5028979;28;19956;-83
2022/04/26 13:07:15;;;;;;;;;;;;;;;;;;5034215;28;20058;-82
2022/04/26 13:09:42;;;;;;;;;;;;;;;;;;5022480;28;19964;-82
2022/04/26 13:12:09;;;;;;;;;;;;;;;;;;5022359;28;20355;-82
2022/04/26 13:14:35;;;;;;;;;;;;;;;;;;5021953;28;20393;-83
2022/04/26 13:17:01;;;;;;;;;;;;;;;;;;5023815;28;19971;-83
2022/04/26 13:19:28;;;;;;;;;;;;;;;;;;5026306;28;19968;-82
2022/04/26 13:21:54;;;;;;;;;;;;;;;;;;5023049;28;19952;-83
2022/04/26 13:24:28;;;;;;;;;;;;;;;;;;5034193;28;19913;-81
2022/04/26 13:26:54;;;;;;;;;;;;;;;;;;5044499;28;19967;-80
2022/04/26 13:29:20;;;;;;;;;;;;;;;;;;5043293;28;19971;-81
2022/04/26 13:31:46;;;;;;;;;;;;;;;;;;5044370;28;20354;-82
2022/04/26 13:34:12;;;;;;;;;;;;;;;;;;5056963;28;19970;-82
2022/04/26 13:36:39;;;;;;;;;;;;;;;;;;5045185;28;19972;-81
2022/04/26 13:39:05;;;;;;;;;;;;;;;;;;5053547;28;19917;-82
2022/04/26 13:41:31;;;;;;;;;;;;;;;;;;5042549;28;19952;-81
2022/04/26 13:43:57;;;;;;;;;;;;;;;;;;5041098;28;19944;-82
2022/04/26 13:46:24;;;;;;;;;;;;;;;;;;5041561;28;19917;-81
2022/04/26 13:48:52;;;;;;;;;;;;;;;;;;5047472;28;19960;-81
2022/04/26 13:51:19;;;;;;;;;;;;;;;;;;5045652;28;19956;-82
2022/04/26 13:53:46;;;;;;;;;;;;;;;;;;5049834;28;19999;-80
2022/04/26 13:56:12;;;;;;;;;;;;;;;;;;5054684;28;19967;-77
2022/04/26 13:58:38;;;;;;;;;;;;;;;;;;5042811;28;19964;-75
2022/04/26 14:01:04;;;;;;;;;;;;;;;;;;5045121;28;19966;-75
2022/04/26 14:03:31;;;;;;;;;;;;;;;;;;5040818;28;19953;-76
2022/04/26 14:05:58;;;;;;;;;;;;;;;;;;5054183;28;19937;-77
2022/04/26 14:08:24;;;;;;;;;;;;;;;;;;5031060;28;19975;-78
2022/04/26 14:10:50;;;;;;;;;;;;;;;;;;5039040;28;20009;-77
2022/04/26 14:13:16;;;;;;;;;;;;;;;;;;5062483;28;19943;-77
2022/04/26 14:24:07;;;;;;;;;;;;;;;;;;5050514;28;20299;-78
2022/04/26 14:29:59;;;;;;;;;;;;;;;;;;4991774;28;20059;-78
2022/04/26 14:33:00;;;;;;;;;;;;;;;;;;;;;
2022/04/26 14:35:48;;;;;;;;;;;;;;;;;;4928278;28;19937;-77
2022/04/26 14:38:18;;;;;;;;;;;;;;;;;;4975055;28;19944;-77
2022/04/26 14:40:44;;;;;;;;;;;;;;;;;;5015606;28;19912;-78
2022/04/26 14:43:10;;;;;;;;;;;;;;;;;;5048705;28;19940;-77
2022/04/26 14:45:46;;;;;;;;;;;;;;;;;;5025820;28;20331;-76
2022/04/26 14:48:14;;;;;;;;;;;;;;;;;;5051427;28;20005;-77
2022/04/26 14:50:41;;;;;;;;;;;;;;;;;;5048578;28;19998;-76
2022/04/26 14:53:10;;;;;;;;;;;;;;;;;;5056585;28;20377;-76
2022/04/26 14:55:38;;;;;;;;;;;;;;;;;;5041938;28;19957;-76
2022/04/26 14:58:06;;;;;;;;;;;;;;;;;;5039452;28;19925;-77
2022/04/26 15:00:35;;;;;;;;;;;;;;;;;;5033665;28;19952;-76
2022/04/26 15:03:02;;;;;;;;;;;;;;;;;;5046004;28;19967;-77
2022/04/26 15:05:28;;;;;;;;;;;;;;;;;;5045876;28;19949;-77
2022/04/26 15:10:39;;;;;;;;;;;;;;;;;;5040944;28;19939;-75
2022/04/26 15:18:35;;;;;;;;;;;;;;;;;;5038680;28;19960;-76
2022/04/26 15:21:02;;;;;;;;;;;;;;;;;;5055502;28;19956;-75
2022/04/26 15:23:29;;;;;;;;;;;;;;;;;;5036346;28;19960;-77
2022/04/26 15:25:55;;;;;;;;;;;;;;;;;;5032577;28;20434;-77
2022/04/26 15:28:21;;;;;;;;;;;;;;;;;;5036928;28;19944;-77
2022/04/26 15:30:48;;;;;;;;;;;;;;;;;;5020189;28;20015;-77
2022/04/26 15:33:15;;;;;;;;;;;;;;;;;;5036461;28;20333;-77
2022/04/26 15:35:42;;;;;;;;;;;;;;;;;;5022541;28;19948;-75
2022/04/26 15:38:10;;;;;;;;;;;;;;;;;;5055086;28;19971;-77
2022/04/26 15:40:36;;;;;;;;;;;;;;;;;;5022690;28;20013;-77
2022/04/26 15:43:03;;;;;;;;;;;;;;;;;;5056609;28;19921;-76
2022/04/26 15:45:29;;;;;;;;;;;;;;;;;;5040621;28;19956;-76
2022/04/26 15:47:55;;;;;;;;;;;;;;;;;;5042108;28;19957;-77
2022/04/26 15:50:21;;;;;;;;;;;;;;;;;;5053983;28;20365;-76
2022/04/26 15:52:47;;;;;;;;;;;;;;;;;;5038012;28;20013;-76
2022/04/26 15:55:14;;;;;;;;;;;;;;;;;;5036139;28;20387;-76
2022/04/26 15:57:42;;;;;;;;;;;;;;;;;;5033359;28;19961;-76
2022/04/26 16:00:08;;;;;;;;;;;;;;;;;;5040927;28;19967;-76
2022/04/26 16:02:34;;;;;;;;;;;;;;;;;;5033411;28;19956;-76
2022/04/26 16:05:00;;;;;;;;;;;;;;;;;;5033762;28;19935;-76
2022/04/26 16:07:26;;;;;;;;;;;;;;;;;;5039300;28;19972;-76
2022/04/26 16:20:52;;;;;;;;;;;;;;;;;;5032155;28;20523;-79
2022/04/26 16:23:19;;;;;;;;;;;;;;;;;;5035213;28;19997;-78
2022/04/26 16:25:45;;;;;;;;;;;;;;;;;;5040404;28;19975;-78
2022/04/26 16:28:12;;;;;;;;;;;;;;;;;;5054530;28;19956;-77
2022/04/26 16:30:40;;;;;;;;;;;;;;;;;;5036097;28;19965;-77
2022/04/26 16:33:06;;;;;;;;;;;;;;;;;;5055360;28;20391;-78
2022/04/26 16:35:33;;;;;;;;;;;;;;;;;;5048576;28;19964;-77
2022/04/26 16:37:59;;;;;;;;;;;;;;;;;;5044361;28;20109;-78
2022/04/26 16:40:26;;;;;;;;;;;;;;;;;;5051455;28;19951;-79
2022/04/26 16:42:53;;;;;;;;;;;;;;;;;;5035626;28;19932;-79
2022/04/26 16:45:19;;;;;;;;;;;;;;;;;;5053456;28;20536;-78
2022/04/26 16:47:45;;;;;;;;;;;;;;;;;;5050314;28;20082;-79
2022/04/26 16:50:12;;;;;;;;;;;;;;;;;;5038350;28;19999;-79
2022/04/26 16:52:38;;;;;;;;;;;;;;;;;;5032068;28;19951;-79
2022/04/26 16:55:05;;;;;;;;;;;;;;;;;;5055853;28;22449;-79
2022/04/26 16:57:34;;;;;;;;;;;;;;;;;;5027339;28;20436;-78
2022/04/26 17:00:06;;;;;;;;;;;;;;;;;;4990523;28;20422;-78
2022/04/26 17:02:33;;;;;;;;;;;;;;;;;;5040814;28;20451;-78
2022/04/26 17:04:59;;;;;;;;;;;;;;;;;;5052435;28;19998;-78
2022/04/26 17:07:25;;;;;;;;;;;;;;;;;;5046385;28;19955;-78
2022/04/26 17:09:52;;;;;;;;;;;;;;;;;;5044300;28;20376;-79
2022/04/26 17:12:18;;;;;;;;;;;;;;;;;;5036072;28;19956;-79
2022/04/26 17:14:44;;;;;;;;;;;;;;;;;;5053139;28;19972;-78
2022/04/26 17:17:14;;;;;;;;;;;;;;;;;;5062320;28;20484;-79
2022/04/26 17:19:40;;;;;;;;;;;;;;;;;;5038952;28;19955;-78
2022/04/26 17:22:07;;;;;;;;;;;;;;;;;;5051128;28;19952;-79
2022/04/26 17:27:18;;;;;;;;;;;;;;;;;;5071317;28;20330;-79
2022/04/26 17:29:47;;;;;;;;;;;;;;;;;;5050918;28;20353;-78
2022/04/26 17:32:14;;;;;;;;;;;;;;;;;;5068574;28;19986;-78
2022/04/26 17:34:43;;;;;;;;;;;;;;;;;;5025819;28;20001;-77
2022/04/26 17:40:34;;;;;;;;;;;;;;;;;;4984755;28;20274;-79
2022/04/26 17:43:00;;;;;;;;;;;;;;;;;;5047437;28;20378;-78
2022/04/26 17:45:27;;;;;;;;;;;;;;;;;;5039213;28;19953;-78
2022/04/26 17:47:54;;;;;;;;;;;;;;;;;;5041173;28;19948;-77
2022/04/26 17:50:20;;;;;;;;;;;;;;;;;;5042256;28;19952;-78
2022/04/26 17:58:16;;;;;;;;;;;;;;;;;;5046719;28;20384;-79
2022/04/26 18:00:43;;;;;;;;;;;;;;;;;;5040372;28;20389;-77
2022/04/26 18:03:09;;;;;;;;;;;;;;;;;;5042780;28;19952;-77
2022/04/26 18:05:35;;;;;;;;;;;;;;;;;;5039755;28;19944;-78
2022/04/26 18:08:01;;;;;;;;;;;;;;;;;;5060459;28;19975;-78
2022/04/26 18:10:27;;;;;;;;;;;;;;;;;;5045809;28;19971;-76
2022/04/26 18:12:54;;;;;;;;;;;;;;;;;;5035470;28;19974;-79
2022/04/26 18:15:20;;;;;;;;;;;;;;;;;;5039309;28;19948;-77
2022/04/26 18:17:48;;;;;;;;;;;;;;;;;;5044249;28;19968;-78
2022/04/26 18:20:15;;;;;;;;;;;;;;;;;;5039089;28;20003;-78
2022/04/26 18:22:41;;;;;;;;;;;;;;;;;;5038224;28;19964;-78
2022/04/26 18:25:07;;;;;;;;;;;;;;;;;;5050512;28;19952;-80
2022/04/26 18:27:34;;;;;;;;;;;;;;;;;;5047012;28;19956;-80
2022/04/26 18:30:01;;;;;;;;;;;;;;;;;;5027563;28;20536;-80
2022/04/26 18:32:28;;;;;;;;;;;;;;;;;;5054839;28;20398;-80
2022/04/26 18:34:54;;;;;;;;;;;;;;;;;;5045532;28;19964;-78
2022/04/26 18:37:21;;;;;;;;;;;;;;;;;;5043972;28;19956;-78
2022/04/26 18:39:47;;;;;;;;;;;;;;;;;;5042932;28;19967;-77
2022/04/26 18:42:13;;;;;;;;;;;;;;;;;;5043566;28;19940;-78
2022/04/26 18:44:40;;;;;;;;;;;;;;;;;;5042108;28;19988;-78
2022/04/26 18:47:06;;;;;;;;;;;;;;;;;;5020503;28;20349;-80
2022/04/26 18:49:35;;;;;;;;;;;;;;;;;;5056869;28;19952;-78
2022/04/26 18:52:01;;;;;;;;;;;;;;;;;;5038327;28;19964;-79
2022/04/26 18:54:27;;;;;;;;;;;;;;;;;;5042626;28;19980;-79
2022/04/26 18:56:54;;;;;;;;;;;;;;;;;;5020908;28;20035;-78
2022/04/26 18:59:21;;;;;;;;;;;;;;;;;;5035152;28;20360;-78
2022/04/26 19:01:47;;;;;;;;;;;;;;;;;;5050555;28;19921;-78
2022/04/26 19:04:14;;;;;;;;;;;;;;;;;;5036793;28;19961;-79
2022/04/26 19:06:40;;;;;;;;;;;;;;;;;;5040191;28;20452;-78
2022/04/26 19:09:06;;;;;;;;;;;;;;;;;;5032538;28;20444;-78
2022/04/26 19:14:17;;;;;;;;;;;;;;;;;;5042459;28;19952;-78
2022/04/26 19:16:44;;;;;;;;;;;;;;;;;;5048275;28;20376;-78
2022/04/26 19:19:12;;;;;;;;;;;;;;;;;;5050948;28;20031;-77
2022/04/26 19:21:39;;;;;;;;;;;;;;;;;;5036279;28;19956;-77
2022/04/26 19:24:05;;;;;;;;;;;;;;;;;;5018827;28;19921;-77
2022/04/26 19:26:31;;;;;;;;;;;;;;;;;;5034059;28;19952;-77
2022/04/26 19:28:57;;;;;;;;;;;;;;;;;;5043079;28;19956;-76
2022/04/26 19:31:23;;;;;;;;;;;;;;;;;;5047079;28;20368;-77
2022/04/26 19:33:50;;;;;;;;;;;;;;;;;;5034175;28;19949;-77
2022/04/26 19:36:17;;;;;;;;;;;;;;;;;;5039789;28;20485;-77
2022/04/26 19:38:43;;;;;;;;;;;;;;;;;;5035351;28;19960;-77
2022/04/26 19:41:09;;;;;;;;;;;;;;;;;;5034587;28;19956;-76
2022/04/26 19:43:35;;;;;;;;;;;;;;;;;;5048306;28;19959;-77
2022/04/26 19:46:02;;;;;;;;;;;;;;;;;;5033157;28;19964;-77
2022/04/26 19:48:28;;;;;;;;;;;;;;;;;;5039790;28;19960;-78
2022/04/26 19:53:39;;;;;;;;;;;;;;;;;;5038606;28;19951;-76
2022/04/26 19:56:05;;;;;;;;;;;;;;;;;;5035373;28;19981;-77
2022/04/26 19:58:32;;;;;;;;;;;;;;;;;;5035107;28;20045;-77
2022/04/26 20:00:58;;;;;;;;;;;;;;;;;;5030595;28;19959;-77
2022/04/26 20:03:24;;;;;;;;;;;;;;;;;;5041378;28;19913;-76
2022/04/26 20:05:52;;;;;;;;;;;;;;;;;;5037764;28;20326;-75
2022/04/26 20:08:19;;;;;;;;;;;;;;;;;;5053046;28;20999;-77
2022/04/26 20:10:45;;;;;;;;;;;;;;;;;;5039445;28;20348;-77
2022/04/26 20:13:11;;;;;;;;;;;;;;;;;;5046830;28;19960;-78
2022/04/26 20:15:37;;;;;;;;;;;;;;;;;;5045603;28;20416;-77
2022/04/26 20:18:04;;;;;;;;;;;;;;;;;;5042955;28;19967;-77
2022/04/26 20:20:31;;;;;;;;;;;;;;;;;;5039664;28;19971;-76
2022/04/26 20:22:57;;;;;;;;;;;;;;;;;;5047024;28;19964;-78
2022/04/26 20:25:23;;;;;;;;;;;;;;;;;;5047804;28;19963;-77
2022/04/26 20:30:34;;;;;;;;;;;;;;;;;;5035634;28;20349;-79
2022/04/26 20:33:01;;;;;;;;;;;;;;;;;;5038067;28;19949;-77
2022/04/26 20:35:27;;;;;;;;;;;;;;;;;;5039670;28;19953;-77
2022/04/26 20:37:54;;;;;;;;;;;;;;;;;;5039507;28;21441;-77
2022/04/26 20:40:22;;;;;;;;;;;;;;;;;;5045109;28;19956;-78
2022/04/26 20:42:49;;;;;;;;;;;;;;;;;;5046489;28;19956;-75
2022/04/26 20:45:15;;;;;;;;;;;;;;;;;;5044121;28;20319;-77
2022/04/26 20:47:41;;;;;;;;;;;;;;;;;;5047007;28;19960;-76
2022/04/26 20:50:07;;;;;;;;;;;;;;;;;;5057995;28;20463;-76
2022/04/26 20:52:34;;;;;;;;;;;;;;;;;;5042007;28;19945;-76
2022/04/26 20:55:00;;;;;;;;;;;;;;;;;;5057406;28;20333;-76
2022/04/26 20:57:26;;;;;;;;;;;;;;;;;;5046677;28;19960;-76
2022/04/26 20:59:52;;;;;;;;;;;;;;;;;;5063457;28;19959;-77
2022/04/26 21:02:19;;;;;;;;;;;;;;;;;;5041345;28;20491;-77
2022/04/26 21:04:45;;;;;;;;;;;;;;;;;;5033081;28;20005;-78
2022/04/26 21:07:14;;;;;;;;;;;;;;;;;;5036316;28;19924;-76
2022/04/26 21:09:40;;;;;;;;;;;;;;;;;;5056300;28;19974;-79
2022/04/26 21:12:06;;;;;;;;;;;;;;;;;;5046474;28;19960;-77
2022/04/26 21:14:33;;;;;;;;;;;;;;;;;;5035765;28;20488;-80
2022/04/26 21:16:59;;;;;;;;;;;;;;;;;;5042302;28;19976;-76
2022/04/26 21:19:27;;;;;;;;;;;;;;;;;;5041324;28;19938;-75
2022/04/26 21:21:54;;;;;;;;;;;;;;;;;;5025484;28;19913;-76
2022/04/26 21:24:20;;;;;;;;;;;;;;;;;;5045129;28;20314;-75
2022/04/26 21:26:46;;;;;;;;;;;;;;;;;;5044269;28;19960;-79
2022/04/26 21:29:12;;;;;;;;;;;;;;;;;;5059736;28;19923;-77
2022/04/26 21:31:40;;;;;;;;;;;;;;;;;;5038639;28;19974;-77
2022/04/26 21:34:06;;;;;;;;;;;;;;;;;;5039648;28;20010;-78
2022/04/26 21:36:32;;;;;;;;;;;;;;;;;;5044127;28;19963;-78